Time;durP1;ratioP1;P1;durP2;ratioP2;P2;SDS_P1;SDS_P2;PMS_P1;PMS_P2;Temp;Humidity;BMP_temperature;BMP_pressure;BME280_temperature;BME280_humidity;BME280_pressure;Samples;Min_cycle;Max_cycle;Signal;HPM_P1;HPM_P2
2021/04/25 00:02:12;;;;;;;46.77;27.80;;;;;;;;;;5053458;28;20245;-81
2021/04/25 00:04:37;;;;;;;48.20;26.47;;;;;;;;;;5052595;28;20198;-82
2021/04/25 00:07:03;;;;;;;47.43;27.50;;;;;;;;;;5053620;28;20172;-81
2021/04/25 00:09:29;;;;;;;89.97;40.93;;;;;;;;;;5053980;28;20250;-81
2021/04/25 00:11:54;;;;;;;87.00;41.60;;;;;;;;;;5054160;28;20507;-82
2021/04/25 00:14:20;;;;;;;59.47;32.03;;;;;;;;;;5053830;28;20282;-81
2021/04/25 00:16:45;;;;;;;51.53;29.53;;;;;;;;;;5053932;28;20587;-81
2021/04/25 00:19:11;;;;;;;47.27;28.93;;;;;;;;;;5053542;28;20199;-81
2021/04/25 00:21:36;;;;;;;51.83;31.47;;;;;;;;;;5052577;28;20255;-81
2021/04/25 00:24:01;;;;;;;53.10;30.83;;;;;;;;;;5054033;28;20201;-81
2021/04/25 00:26:27;;;;;;;55.07;31.97;;;;;;;;;;5053809;28;20176;-81
2021/04/25 00:28:52;;;;;;;64.67;35.87;;;;;;;;;;5053942;28;20179;-81
2021/04/25 00:31:17;;;;;;;110.20;53.30;;;;;;;;;;5054061;28;20176;-81
2021/04/25 00:33:43;;;;;;;98.00;51.90;;;;;;;;;;5054239;28;20199;-81
2021/04/25 00:36:08;;;;;;;56.73;34.30;;;;;;;;;;5054002;28;20571;-81
2021/04/25 00:38:34;;;;;;;48.03;28.70;;;;;;;;;;5053223;28;20172;-82
2021/04/25 00:40:59;;;;;;;42.83;27.13;;;;;;;;;;5053917;28;20207;-81
2021/04/25 00:43:25;;;;;;;46.13;26.97;;;;;;;;;;5054144;28;20163;-81
2021/04/25 00:45:50;;;;;;;42.43;26.77;;;;;;;;;;5053601;28;20586;-81
2021/04/25 00:48:16;;;;;;;38.33;24.63;;;;;;;;;;5053750;28;20690;-81
2021/04/25 00:50:41;;;;;;;41.93;24.20;;;;;;;;;;5054425;28;20164;-81
2021/04/25 00:53:06;;;;;;;43.70;25.27;;;;;;;;;;5053788;28;20172;-81
2021/04/25 00:55:32;;;;;;;37.70;22.97;;;;;;;;;;5053607;28;20259;-81
2021/04/25 00:57:58;;;;;;;38.00;24.53;;;;;;;;;;5053170;28;20168;-81
2021/04/25 01:00:24;;;;;;;37.83;23.70;;;;;;;;;;5053341;28;20218;-81
2021/04/25 01:02:49;;;;;;;33.53;22.83;;;;;;;;;;5053387;28;20168;-81
2021/04/25 01:05:16;;;;;;;37.07;23.13;;;;;;;;;;5053093;28;20202;-81
2021/04/25 01:07:41;;;;;;;37.37;24.07;;;;;;;;;;5053759;28;20508;-81
2021/04/25 01:10:08;;;;;;;46.87;29.20;;;;;;;;;;5053395;28;20179;-81
2021/04/25 01:12:34;;;;;;;48.83;31.60;;;;;;;;;;5053801;28;20168;-81
2021/04/25 01:14:59;;;;;;;80.00;43.43;;;;;;;;;;5053141;28;20194;-81
2021/04/25 01:17:25;;;;;;;55.43;35.47;;;;;;;;;;5053241;28;20527;-82
2021/04/25 01:19:51;;;;;;;41.70;27.73;;;;;;;;;;5052963;28;20168;-82
2021/04/25 01:22:17;;;;;;;39.83;24.93;;;;;;;;;;5054908;28;20630;-82
2021/04/25 01:24:43;;;;;;;37.77;25.03;;;;;;;;;;5057220;28;20225;-82
2021/04/25 01:27:08;;;;;;;37.63;26.67;;;;;;;;;;5057247;28;20171;-82
2021/04/25 01:29:33;;;;;;;34.97;23.13;;;;;;;;;;5056901;28;20214;-81
2021/04/25 01:31:58;;;;;;;37.00;23.70;;;;;;;;;;5057096;28;20176;-82
2021/04/25 01:34:24;;;;;;;36.07;24.60;;;;;;;;;;5056629;28;20195;-81
2021/04/25 01:36:51;;;;;;;38.07;26.23;;;;;;;;;;5056385;28;20255;-81
2021/04/25 01:39:16;;;;;;;40.33;26.40;;;;;;;;;;5056734;28;20622;-81
2021/04/25 01:41:42;;;;;;;40.67;28.93;;;;;;;;;;5056235;28;20169;-81
2021/04/25 01:44:07;;;;;;;43.63;28.33;;;;;;;;;;5056528;28;20168;-81
2021/04/25 01:46:33;;;;;;;39.97;27.70;;;;;;;;;;5056566;28;20175;-81
2021/04/25 01:48:58;;;;;;;42.90;26.67;;;;;;;;;;5056156;28;20233;-81
2021/04/25 01:51:23;;;;;;;38.73;26.13;;;;;;;;;;5056426;28;20237;-81
2021/04/25 01:53:48;;;;;;;37.97;25.57;;;;;;;;;;5056311;28;20200;-81
2021/04/25 01:56:14;;;;;;;38.20;23.87;;;;;;;;;;5056078;28;20700;-81
2021/04/25 01:58:39;;;;;;;37.93;23.27;;;;;;;;;;5055977;28;20638;-81
2021/04/25 02:01:05;;;;;;;48.37;26.70;;;;;;;;;;5056001;28;20259;-81
2021/04/25 02:03:30;;;;;;;41.63;24.20;;;;;;;;;;5055985;28;20177;-81
2021/04/25 02:05:56;;;;;;;38.00;23.33;;;;;;;;;;5056740;28;20199;-80
2021/04/25 02:08:21;;;;;;;34.90;21.70;;;;;;;;;;5055315;28;20553;-81
2021/04/25 02:10:47;;;;;;;38.43;21.07;;;;;;;;;;5056003;28;20184;-81
2021/04/25 02:13:13;;;;;;;29.03;17.83;;;;;;;;;;5055868;28;20235;-81
2021/04/25 02:15:39;;;;;;;29.63;18.60;;;;;;;;;;5055985;28;20201;-82
2021/04/25 02:18:05;;;;;;;30.07;18.77;;;;;;;;;;5055832;28;20187;-81
2021/04/25 02:20:30;;;;;;;27.53;17.23;;;;;;;;;;5056227;28;20172;-81
2021/04/25 02:22:56;;;;;;;28.70;18.07;;;;;;;;;;5055671;28;20526;-81
2021/04/25 02:25:22;;;;;;;28.53;19.00;;;;;;;;;;5056298;28;20172;-81
2021/04/25 02:27:48;;;;;;;28.83;18.83;;;;;;;;;;5055737;28;20175;-81
2021/04/25 02:30:23;;;;;;;31.90;19.40;;;;;;;;;;5055437;28;20168;-81
2021/04/25 02:32:48;;;;;;;30.43;18.20;;;;;;;;;;5055650;28;20567;-81
2021/04/25 02:35:14;;;;;;;28.23;18.07;;;;;;;;;;5055540;28;20265;-81
2021/04/25 02:37:40;;;;;;;24.77;15.87;;;;;;;;;;5055882;28;20179;-81
2021/04/25 02:40:06;;;;;;;23.47;16.10;;;;;;;;;;5055273;28;20224;-81
2021/04/25 02:42:31;;;;;;;25.43;15.90;;;;;;;;;;5055585;28;20519;-81
2021/04/25 02:44:57;;;;;;;23.97;15.80;;;;;;;;;;5055052;28;20176;-81
2021/04/25 02:47:22;;;;;;;23.97;16.30;;;;;;;;;;5055400;28;20253;-82
2021/04/25 02:49:47;;;;;;;24.20;17.10;;;;;;;;;;5055487;28;20188;-81
2021/04/25 02:52:13;;;;;;;21.23;15.23;;;;;;;;;;5055305;28;20164;-82
2021/04/25 02:54:38;;;;;;;21.97;14.90;;;;;;;;;;5055391;28;20195;-82
2021/04/25 02:57:03;;;;;;;20.73;14.57;;;;;;;;;;5053991;28;20183;-81
2021/04/25 02:59:29;;;;;;;22.40;14.27;;;;;;;;;;5055225;28;20229;-82
2021/04/25 03:01:54;;;;;;;26.93;18.63;;;;;;;;;;5055622;28;20221;-82
2021/04/25 03:04:19;;;;;;;25.63;20.33;;;;;;;;;;5055100;28;20187;-82
2021/04/25 03:06:45;;;;;;;28.60;19.67;;;;;;;;;;5054985;28;20217;-82
2021/04/25 03:09:10;;;;;;;27.13;17.33;;;;;;;;;;5054623;28;20175;-82
2021/04/25 03:11:35;;;;;;;21.43;14.70;;;;;;;;;;5054884;28;20175;-82
2021/04/25 03:14:01;;;;;;;22.03;13.17;;;;;;;;;;5054936;28;20192;-82
2021/04/25 03:16:26;;;;;;;21.50;13.60;;;;;;;;;;5055400;28;20176;-82
2021/04/25 03:18:51;;;;;;;23.83;15.63;;;;;;;;;;5054798;28;20576;-82
2021/04/25 03:21:17;;;;;;;20.27;15.47;;;;;;;;;;5055287;28;20176;-82
2021/04/25 03:23:42;;;;;;;21.33;12.60;;;;;;;;;;5054432;28;20175;-82
2021/04/25 03:26:08;;;;;;;19.50;12.70;;;;;;;;;;5054923;28;20556;-81
2021/04/25 03:28:33;;;;;;;18.37;12.70;;;;;;;;;;5055323;28;20164;-81
2021/04/25 03:34:01;;;;;;;22.50;13.37;;;;;;;;;;5054260;28;20202;-81
2021/04/25 03:36:26;;;;;;;22.43;14.10;;;;;;;;;;5054598;28;20175;-81
2021/04/25 03:38:52;;;;;;;20.40;13.80;;;;;;;;;;5054251;28;20220;-81
2021/04/25 03:41:17;;;;;;;19.73;13.37;;;;;;;;;;5054612;28;20160;-81
2021/04/25 03:43:42;;;;;;;17.90;12.77;;;;;;;;;;5054692;28;20231;-81
2021/04/25 03:46:07;;;;;;;17.33;12.57;;;;;;;;;;5053812;28;20222;-81
2021/04/25 03:48:34;;;;;;;20.73;12.83;;;;;;;;;;5054092;28;20306;-81
2021/04/25 03:50:59;;;;;;;18.37;12.77;;;;;;;;;;5054155;28;20202;-81
2021/04/25 03:53:24;;;;;;;16.77;11.60;;;;;;;;;;5054188;28;20554;-81
2021/04/25 03:55:50;;;;;;;19.30;11.83;;;;;;;;;;5054803;28;20164;-81
2021/04/25 03:58:15;;;;;;;21.53;12.60;;;;;;;;;;5054265;28;20164;-81
2021/04/25 04:00:40;;;;;;;18.17;13.07;;;;;;;;;;5054354;28;20174;-81
2021/04/25 04:03:05;;;;;;;18.83;12.67;;;;;;;;;;5054312;28;20626;-81
2021/04/25 04:05:31;;;;;;;18.53;12.97;;;;;;;;;;5054524;28;20226;-81
2021/04/25 04:07:56;;;;;;;18.23;13.50;;;;;;;;;;5053692;28;20225;-81
2021/04/25 04:10:22;;;;;;;20.90;14.23;;;;;;;;;;5053661;28;20221;-82
2021/04/25 04:12:47;;;;;;;21.90;15.13;;;;;;;;;;5053909;28;20167;-82
2021/04/25 04:15:13;;;;;;;21.13;14.77;;;;;;;;;;5054009;28;20207;-82
2021/04/25 04:17:38;;;;;;;21.20;13.57;;;;;;;;;;5054134;28;20518;-82
2021/04/25 04:20:05;;;;;;;22.63;15.17;;;;;;;;;;5053821;28;20263;-81
2021/04/25 04:22:30;;;;;;;21.17;14.53;;;;;;;;;;5053780;28;20183;-81
2021/04/25 04:24:55;;;;;;;17.50;11.70;;;;;;;;;;5053780;28;20177;-81
2021/04/25 04:27:21;;;;;;;16.40;12.33;;;;;;;;;;5053531;28;20183;-82
2021/04/25 04:29:46;;;;;;;18.67;13.47;;;;;;;;;;5054102;28;20299;-81
2021/04/25 04:32:11;;;;;;;16.87;11.97;;;;;;;;;;5053510;28;20528;-81
2021/04/25 04:34:37;;;;;;;16.23;10.70;;;;;;;;;;5053683;28;20214;-81
2021/04/25 04:37:03;;;;;;;15.47;11.33;;;;;;;;;;5053673;28;20175;-81
2021/04/25 04:39:28;;;;;;;12.53;10.50;;;;;;;;;;5053697;28;20220;-81
2021/04/25 04:41:54;;;;;;;16.80;11.33;;;;;;;;;;5053630;28;20178;-82
2021/04/25 04:44:19;;;;;;;17.43;12.27;;;;;;;;;;5053854;28;20199;-82
2021/04/25 04:46:44;;;;;;;19.23;12.97;;;;;;;;;;5053655;28;20195;-81
2021/04/25 04:49:10;;;;;;;18.43;13.80;;;;;;;;;;5053570;28;20187;-81
2021/04/25 04:51:35;;;;;;;24.90;17.47;;;;;;;;;;5053950;28;20172;-81
2021/04/25 04:54:00;;;;;;;22.37;14.70;;;;;;;;;;5053720;28;20198;-82
2021/04/25 04:56:26;;;;;;;17.53;12.23;;;;;;;;;;5055308;28;20168;-82
2021/04/25 04:58:51;;;;;;;16.80;12.53;;;;;;;;;;5057032;28;20171;-82
2021/04/25 05:01:16;;;;;;;19.13;13.47;;;;;;;;;;5057664;28;20190;-82
2021/04/25 05:03:42;;;;;;;18.07;12.63;;;;;;;;;;5057587;28;20518;-82
2021/04/25 05:06:07;;;;;;;16.83;13.03;;;;;;;;;;5057073;28;20521;-82
2021/04/25 05:08:32;;;;;;;17.73;13.13;;;;;;;;;;5057339;28;20258;-82
2021/04/25 05:10:58;;;;;;;17.10;12.57;;;;;;;;;;5057299;28;20171;-81
2021/04/25 05:13:23;;;;;;;14.93;12.47;;;;;;;;;;5057311;28;20195;-81
2021/04/25 05:15:48;;;;;;;15.13;12.23;;;;;;;;;;5057408;28;20172;-81
2021/04/25 05:18:14;;;;;;;15.07;11.83;;;;;;;;;;5057278;28;20628;-81
2021/04/25 05:20:39;;;;;;;17.97;12.20;;;;;;;;;;5057011;28;20733;-81
2021/04/25 05:23:04;;;;;;;15.00;9.80;;;;;;;;;;5056684;28;20171;-81
2021/04/25 05:25:30;;;;;;;13.60;10.10;;;;;;;;;;5056780;28;20168;-81
2021/04/25 05:27:55;;;;;;;49.93;33.77;;;;;;;;;;5057012;28;20245;-81
2021/04/25 05:30:21;;;;;;;21.60;15.50;;;;;;;;;;5056843;28;20160;-81
2021/04/25 05:32:46;;;;;;;24.23;17.43;;;;;;;;;;5056804;28;20164;-81
2021/04/25 05:35:12;;;;;;;13.90;9.33;;;;;;;;;;5056631;28;20602;-82
2021/04/25 05:37:37;;;;;;;15.67;12.23;;;;;;;;;;5056691;28;20164;-81
2021/04/25 05:40:04;;;;;;;14.13;9.67;;;;;;;;;;5056378;28;20215;-82
2021/04/25 05:42:29;;;;;;;16.13;11.73;;;;;;;;;;5056370;28;20175;-81
2021/04/25 05:44:54;;;;;;;18.13;13.17;;;;;;;;;;5056706;28;20537;-81
2021/04/25 05:47:20;;;;;;;19.10;13.50;;;;;;;;;;5056852;28;20282;-81
2021/04/25 05:49:45;;;;;;;19.07;13.23;;;;;;;;;;5056450;28;20612;-81
2021/04/25 05:52:11;;;;;;;10.80;8.23;;;;;;;;;;5056410;28;20164;-81
2021/04/25 05:54:36;;;;;;;8.67;6.90;;;;;;;;;;5056282;28;20212;-81
2021/04/25 05:57:01;;;;;;;7.93;6.60;;;;;;;;;;5056318;28;20171;-81
2021/04/25 05:59:27;;;;;;;12.63;8.33;;;;;;;;;;5056595;28;20207;-81
2021/04/25 06:01:52;;;;;;;20.23;13.60;;;;;;;;;;5056692;28;20211;-82
2021/04/25 06:04:18;;;;;;;16.20;12.27;;;;;;;;;;5056350;28;20179;-82
2021/04/25 06:06:43;;;;;;;17.27;14.60;;;;;;;;;;5056729;28;20172;-82
2021/04/25 06:09:08;;;;;;;13.77;10.60;;;;;;;;;;5055513;28;20179;-82
2021/04/25 06:11:34;;;;;;;12.30;9.77;;;;;;;;;;5055814;28;20168;-83
2021/04/25 06:14:00;;;;;;;11.77;9.40;;;;;;;;;;5055675;28;20207;-82
2021/04/25 06:16:25;;;;;;;11.80;9.70;;;;;;;;;;5056208;28;20186;-82
2021/04/25 06:18:51;;;;;;;10.60;8.30;;;;;;;;;;5056010;28;20214;-82
2021/04/25 06:21:16;;;;;;;14.40;9.37;;;;;;;;;;5055724;28;20184;-82
2021/04/25 06:23:41;;;;;;;10.37;6.23;;;;;;;;;;5056180;28;20650;-82
2021/04/25 06:26:07;;;;;;;12.40;8.27;;;;;;;;;;5055787;28;20172;-82
2021/04/25 06:28:32;;;;;;;22.70;13.93;;;;;;;;;;5056035;28;20172;-82
2021/04/25 06:30:58;;;;;;;15.73;10.53;;;;;;;;;;5055680;28;20176;-82
2021/04/25 06:33:24;;;;;;;11.50;8.10;;;;;;;;;;5055564;28;20207;-82
2021/04/25 06:35:49;;;;;;;10.37;7.83;;;;;;;;;;5055649;28;20179;-82
2021/04/25 06:38:15;;;;;;;10.77;8.10;;;;;;;;;;5055379;28;20172;-82
2021/04/25 06:40:40;;;;;;;10.20;7.43;;;;;;;;;;5056172;28;20273;-82
2021/04/25 06:43:05;;;;;;;9.50;7.47;;;;;;;;;;5055206;28;20168;-83
2021/04/25 06:45:31;;;;;;;10.57;7.77;;;;;;;;;;5056231;28;20171;-82
2021/04/25 06:47:56;;;;;;;11.10;7.87;;;;;;;;;;5055550;28;20631;-83
2021/04/25 06:50:22;;;;;;;9.27;7.47;;;;;;;;;;5055016;28;20171;-83
2021/04/25 06:52:47;;;;;;;14.10;10.23;;;;;;;;;;5055316;28;20163;-82
2021/04/25 06:55:17;;;;;;;8.00;6.70;;;;;;;;;;5055225;28;20206;-81
2021/04/25 06:57:42;;;;;;;6.07;5.43;;;;;;;;;;5055060;28;20179;-82
2021/04/25 07:00:08;;;;;;;6.67;5.80;;;;;;;;;;5055500;28;20172;-79
2021/04/25 07:02:34;;;;;;;9.43;7.27;;;;;;;;;;5055315;28;20187;-79
2021/04/25 07:04:59;;;;;;;10.00;7.00;;;;;;;;;;5055615;28;20578;-81
2021/04/25 07:07:24;;;;;;;7.37;5.80;;;;;;;;;;5054733;28;20207;-82
2021/04/25 07:09:49;;;;;;;6.10;4.70;;;;;;;;;;5054933;28;20168;-82
2021/04/25 07:12:15;;;;;;;6.30;4.83;;;;;;;;;;5055477;28;20168;-82
2021/04/25 07:14:40;;;;;;;5.50;4.73;;;;;;;;;;5054556;28;20338;-82
2021/04/25 07:17:05;;;;;;;5.93;5.30;;;;;;;;;;5055091;28;20167;-82
2021/04/25 07:19:31;;;;;;;6.63;5.60;;;;;;;;;;5053502;28;20198;-82
2021/04/25 07:21:57;;;;;;;6.53;5.75;;;;;;;;;;5044206;28;20581;-82
2021/04/25 07:24:22;;;;;;;6.25;5.57;;;;;;;;;;5032631;28;20173;-82
2021/04/25 07:26:48;;;;;;;5.43;4.93;;;;;;;;;;5034709;28;20176;-79
2021/04/25 07:29:14;;;;;;;6.32;5.72;;;;;;;;;;5035059;28;20191;-81
2021/04/25 07:31:40;;;;;;;5.88;5.28;;;;;;;;;;5035220;28;20179;-80
2021/04/25 07:34:05;;;;;;;7.00;5.57;;;;;;;;;;5034376;28;20208;-82
2021/04/25 07:36:30;;;;;;;7.15;5.18;;;;;;;;;;5034878;28;20169;-82
2021/04/25 07:38:56;;;;;;;6.35;5.32;;;;;;;;;;5033992;28;20753;-81
2021/04/25 07:41:21;;;;;;;5.68;5.07;;;;;;;;;;5035058;28;20161;-79
2021/04/25 07:43:46;;;;;;;6.22;5.38;;;;;;;;;;5034172;28;20180;-80
2021/04/25 07:46:12;;;;;;;4.45;4.05;;;;;;;;;;5027874;28;20187;-83
2021/04/25 07:48:37;;;;;;;4.78;4.30;;;;;;;;;;5029725;28;20565;-82
2021/04/25 07:51:03;;;;;;;4.97;4.47;;;;;;;;;;5034117;28;20519;-81
2021/04/25 07:53:28;;;;;;;4.80;4.38;;;;;;;;;;5032778;28;20236;-82
2021/04/25 07:55:54;;;;;;;5.38;4.82;;;;;;;;;;5031983;28;20175;-80
2021/04/25 07:58:19;;;;;;;7.43;6.68;;;;;;;;;;5032367;28;20176;-80
2021/04/25 08:00:44;;;;;;;6.28;4.78;;;;;;;;;;5031354;28;20168;-79
2021/04/25 08:03:10;;;;;;;5.15;4.65;;;;;;;;;;5032549;28;20173;-82
2021/04/25 08:05:35;;;;;;;7.93;6.85;;;;;;;;;;5031305;28;20175;-82
2021/04/25 08:08:01;;;;;;;5.10;4.63;;;;;;;;;;5031857;28;20234;-82
2021/04/25 08:10:27;;;;;;;7.07;5.22;;;;;;;;;;5033558;28;20554;-81
2021/04/25 08:12:53;;;;;;;6.93;5.15;;;;;;;;;;5034209;28;20168;-79
2021/04/25 08:15:18;;;;;;;5.97;4.65;;;;;;;;;;5033882;28;20203;-79
2021/04/25 08:17:44;;;;;;;5.28;4.57;;;;;;;;;;5033555;28;20665;-79
2021/04/25 08:20:09;;;;;;;6.32;5.07;;;;;;;;;;5033843;28;20196;-79
2021/04/25 08:22:35;;;;;;;6.20;5.00;;;;;;;;;;5033702;28;20246;-79
2021/04/25 08:25:01;;;;;;;5.33;4.83;;;;;;;;;;5032169;28;20184;-82
2021/04/25 08:27:26;;;;;;;9.20;7.33;;;;;;;;;;5033609;28;20173;-78
2021/04/25 08:29:52;;;;;;;6.73;5.53;;;;;;;;;;5031650;28;20176;-79
2021/04/25 08:32:17;;;;;;;5.38;4.88;;;;;;;;;;5036973;28;20181;-79
2021/04/25 08:34:42;;;;;;;5.22;4.63;;;;;;;;;;5037628;28;20200;-81
2021/04/25 08:37:07;;;;;;;5.03;4.53;;;;;;;;;;5037775;28;20192;-79
2021/04/25 08:39:33;;;;;;;4.87;4.00;;;;;;;;;;5037409;28;20220;-82
2021/04/25 08:41:58;;;;;;;5.83;4.10;;;;;;;;;;5037469;28;20318;-80
2021/04/25 08:44:24;;;;;;;4.33;3.93;;;;;;;;;;5037622;28;20169;-82
2021/04/25 08:46:50;;;;;;;5.70;4.50;;;;;;;;;;5037899;28;20180;-80
2021/04/25 08:49:21;;;;;;;5.30;4.20;;;;;;;;;;5037198;28;20204;-79
2021/04/25 08:51:47;;;;;;;5.13;4.10;;;;;;;;;;5037529;28;20234;-81
2021/04/25 08:54:13;;;;;;;3.87;3.57;;;;;;;;;;5035754;28;20208;-82
2021/04/25 08:56:39;;;;;;;4.60;3.90;;;;;;;;;;5036289;28;20176;-79
2021/04/25 08:59:05;;;;;;;3.90;3.60;;;;;;;;;;5037466;28;20241;-79
2021/04/25 09:01:30;;;;;;;6.03;4.10;;;;;;;;;;5037329;28;20172;-79
2021/04/25 09:03:56;;;;;;;4.77;3.90;;;;;;;;;;5036978;28;20176;-79
2021/04/25 09:06:21;;;;;;;4.57;4.10;;;;;;;;;;5037475;28;20514;-79
2021/04/25 09:08:48;;;;;;;6.73;4.70;;;;;;;;;;5036874;28;20219;-79
2021/04/25 09:11:30;;;;;;;5.13;4.63;;;;;;;;;;5037152;28;20172;-79
2021/04/25 09:14:25;;;;;;;6.33;4.33;;;;;;;;;;5036725;28;20564;-80
2021/04/25 09:16:57;;;;;;;4.43;4.03;;;;;;;;;;5036157;28;20192;-81
2021/04/25 09:19:23;;;;;;;5.43;4.37;;;;;;;;;;5037354;28;20176;-81
2021/04/25 09:21:59;;;;;;;5.17;4.40;;;;;;;;;;5037044;28;20165;-81
2021/04/25 09:24:26;;;;;;;5.13;4.63;;;;;;;;;;5037211;28;20187;-82
2021/04/25 09:26:52;;;;;;;5.03;4.53;;;;;;;;;;5036896;28;20172;-81
2021/04/25 09:29:19;;;;;;;4.57;4.17;;;;;;;;;;5036534;28;20176;-81
2021/04/25 09:31:44;;;;;;;4.80;4.23;;;;;;;;;;5036421;28;20180;-81
2021/04/25 09:34:10;;;;;;;5.30;4.80;;;;;;;;;;5036315;28;20211;-81
2021/04/25 09:36:35;;;;;;;4.90;4.33;;;;;;;;;;5036991;28;20181;-81
2021/04/25 09:39:12;;;;;;;5.83;4.20;;;;;;;;;;5036233;28;20672;-81
2021/04/25 09:41:38;;;;;;;4.70;4.23;;;;;;;;;;5035838;28;20204;-81
2021/04/25 09:44:03;;;;;;;5.13;4.43;;;;;;;;;;5035671;28;20200;-81
2021/04/25 09:46:56;;;;;;;6.23;5.30;;;;;;;;;;5036586;28;20583;-81
2021/04/25 09:49:45;;;;;;;5.83;4.77;;;;;;;;;;5035731;28;20208;-81
2021/04/25 09:52:11;;;;;;;7.57;4.87;;;;;;;;;;5035541;28;20192;-81
2021/04/25 09:54:38;;;;;;;4.70;4.00;;;;;;;;;;5036123;28;20293;-81
2021/04/25 09:57:03;;;;;;;6.27;4.50;;;;;;;;;;5036084;28;20176;-81
2021/04/25 09:59:29;;;;;;;4.60;4.10;;;;;;;;;;5036107;28;20528;-81
2021/04/25 10:02:07;;;;;;;6.27;5.37;;;;;;;;;;5036184;28;20165;-81
2021/04/25 10:04:37;;;;;;;4.90;4.40;;;;;;;;;;5035709;28;20183;-81
2021/04/25 10:07:06;;;;;;;5.43;4.70;;;;;;;;;;5036401;28;20242;-81
2021/04/25 10:09:32;;;;;;;6.13;4.37;;;;;;;;;;5035840;28;20179;-81
2021/04/25 10:11:58;;;;;;;5.77;4.80;;;;;;;;;;5035928;28;20180;-81
2021/04/25 10:14:27;;;;;;;5.90;5.00;;;;;;;;;;5035738;28;20667;-81
2021/04/25 10:16:53;;;;;;;5.87;4.80;;;;;;;;;;5035799;28;20200;-81
2021/04/25 10:19:19;;;;;;;6.27;5.10;;;;;;;;;;5028333;28;20189;-81
2021/04/25 10:21:45;;;;;;;6.40;5.37;;;;;;;;;;5016559;28;20177;-81
2021/04/25 10:24:11;;;;;;;6.70;5.10;;;;;;;;;;5014016;28;20631;-81
2021/04/25 10:26:39;;;;;;;5.80;5.20;;;;;;;;;;5014296;28;20180;-81
2021/04/25 10:29:06;;;;;;;5.77;5.27;;;;;;;;;;5014425;28;20176;-81
2021/04/25 10:31:36;;;;;;;8.37;5.30;;;;;;;;;;5013859;28;20231;-81
2021/04/25 10:34:03;;;;;;;7.43;6.40;;;;;;;;;;5014079;28;20205;-80
2021/04/25 10:36:44;;;;;;;7.50;5.97;;;;;;;;;;5013745;28;20658;-81
2021/04/25 10:39:27;;;;;;;6.57;5.97;;;;;;;;;;5014710;28;20702;-81
2021/04/25 10:42:13;;;;;;;6.53;5.27;;;;;;;;;;5028330;28;20191;-81
2021/04/25 10:44:59;;;;;;;6.33;5.73;;;;;;;;;;5015438;28;20173;-80
2021/04/25 10:47:27;;;;;;;6.83;6.07;;;;;;;;;;5032297;28;20211;-81
2021/04/25 10:49:59;;;;;;;7.90;5.80;;;;;;;;;;5035261;28;20191;-81
2021/04/25 10:52:24;;;;;;;7.70;5.73;;;;;;;;;;5034966;28;20547;-81
2021/04/25 10:55:08;;;;;;;9.50;6.33;;;;;;;;;;5034653;28;20228;-81
2021/04/25 10:57:33;;;;;;;6.97;5.53;;;;;;;;;;5034874;28;20197;-81
2021/04/25 11:00:38;;;;;;;8.70;6.43;;;;;;;;;;5034873;28;20666;-81
2021/04/25 11:03:13;;;;;;;8.50;6.33;;;;;;;;;;5032693;28;20259;-81
2021/04/25 11:05:39;;;;;;;6.73;5.60;;;;;;;;;;5032862;28;20172;-81
2021/04/25 11:08:16;;;;;;;6.53;5.40;;;;;;;;;;5033741;28;20180;-81
2021/04/25 11:10:48;;;;;;;6.40;5.80;;;;;;;;;;5017789;28;20538;-81
2021/04/25 11:13:32;;;;;;;6.60;5.80;;;;;;;;;;5015108;28;20607;-81
2021/04/25 11:15:58;;;;;;;7.33;5.50;;;;;;;;;;5033003;28;20183;-81
2021/04/25 11:18:44;;;;;;;9.07;5.30;;;;;;;;;;5034244;28;20165;-81
2021/04/25 11:21:32;;;;;;;6.13;5.27;;;;;;;;;;5035002;28;20491;-81
2021/04/25 11:23:58;;;;;;;5.30;4.80;;;;;;;;;;5034858;28;20180;-81
2021/04/25 11:26:36;;;;;;;7.70;5.33;;;;;;;;;;5034679;28;20164;-81
2021/04/25 11:29:02;;;;;;;7.50;5.30;;;;;;;;;;5034686;28;20171;-81
2021/04/25 11:31:56;;;;;;;6.80;5.17;;;;;;;;;;5033545;28;20533;-80
2021/04/25 11:34:28;;;;;;;6.87;6.17;;;;;;;;;;5033269;28;20208;-80
2021/04/25 11:36:54;;;;;;;6.33;5.73;;;;;;;;;;5032678;28;20184;-80
2021/04/25 11:39:21;;;;;;;7.10;5.33;;;;;;;;;;5034180;28;20629;-81
2021/04/25 11:41:47;;;;;;;7.83;5.10;;;;;;;;;;5034181;28;20222;-81
2021/04/25 11:44:21;;;;;;;5.73;4.50;;;;;;;;;;5034105;28;20177;-81
2021/04/25 11:46:47;;;;;;;5.23;4.73;;;;;;;;;;5034116;28;20286;-81
2021/04/25 11:49:13;;;;;;;4.50;4.07;;;;;;;;;;5034078;28;20188;-80
2021/04/25 11:51:38;;;;;;;4.40;4.00;;;;;;;;;;5034267;28;20169;-80
2021/04/25 11:54:17;;;;;;;4.77;4.20;;;;;;;;;;5034183;28;20678;-80
2021/04/25 11:56:43;;;;;;;5.27;4.20;;;;;;;;;;5034228;28;20187;-80
2021/04/25 11:59:09;;;;;;;4.30;3.80;;;;;;;;;;5034125;28;20173;-81
2021/04/25 12:01:35;;;;;;;4.40;3.93;;;;;;;;;;5034019;28;20534;-81
2021/04/25 12:04:00;;;;;;;5.93;4.37;;;;;;;;;;5034154;28;20263;-81
2021/04/25 12:06:25;;;;;;;8.30;6.23;;;;;;;;;;5033434;28;20263;-81
2021/04/25 12:08:54;;;;;;;10.40;6.10;;;;;;;;;;5033553;28;20184;-81
2021/04/25 12:11:21;;;;;;;8.97;7.40;;;;;;;;;;5031443;28;20259;-81
2021/04/25 12:13:46;;;;;;;6.70;5.50;;;;;;;;;;5033975;28;20287;-81
2021/04/25 12:16:17;;;;;;;6.67;5.80;;;;;;;;;;5033383;28;20275;-80
2021/04/25 12:18:43;;;;;;;6.00;4.60;;;;;;;;;;5033662;28;20161;-80
2021/04/25 12:21:14;;;;;;;6.03;4.83;;;;;;;;;;5033770;28;20180;-80
2021/04/25 12:23:50;;;;;;;8.93;5.83;;;;;;;;;;5033788;28;20534;-80
2021/04/25 12:26:17;;;;;;;5.40;4.90;;;;;;;;;;5033768;28;20164;-80
2021/04/25 12:28:47;;;;;;;5.50;4.70;;;;;;;;;;5033432;28;20177;-80
2021/04/25 12:31:15;;;;;;;4.77;4.17;;;;;;;;;;5033050;28;20642;-81
2021/04/25 12:33:42;;;;;;;5.30;4.80;;;;;;;;;;5033492;28;20250;-81
2021/04/25 12:36:09;;;;;;;5.47;4.63;;;;;;;;;;5033372;28;20176;-81
2021/04/25 12:38:37;;;;;;;7.43;6.40;;;;;;;;;;5032669;28;20169;-81
2021/04/25 12:41:02;;;;;;;5.60;4.57;;;;;;;;;;5033313;28;20169;-81
2021/04/25 12:43:29;;;;;;;5.50;5.00;;;;;;;;;;5033286;28;20173;-81
2021/04/25 12:45:55;;;;;;;5.47;4.43;;;;;;;;;;5033544;28;20222;-81
2021/04/25 12:48:24;;;;;;;3.83;3.33;;;;;;;;;;5033429;28;20172;-81
2021/04/25 12:51:19;;;;;;;5.97;4.43;;;;;;;;;;5033296;28;20180;-81
2021/04/25 12:53:46;;;;;;;4.70;4.20;;;;;;;;;;5032459;28;20267;-81
2021/04/25 12:56:23;;;;;;;5.37;4.00;;;;;;;;;;5033375;28;20168;-81
2021/04/25 12:58:58;;;;;;;4.87;4.37;;;;;;;;;;5033455;28;20627;-81
2021/04/25 13:01:24;;;;;;;7.23;5.70;;;;;;;;;;5031493;28;20180;-81
2021/04/25 13:03:50;;;;;;;5.03;4.50;;;;;;;;;;5031444;28;20231;-81
2021/04/25 13:06:31;;;;;;;6.23;4.40;;;;;;;;;;5031539;28;20185;-81
2021/04/25 13:08:57;;;;;;;6.10;5.10;;;;;;;;;;5031532;28;20230;-81
2021/04/25 13:11:36;;;;;;;5.17;4.23;;;;;;;;;;5031300;28;20183;-81
2021/04/25 13:14:08;;;;;;;4.27;3.87;;;;;;;;;;5031454;28;20702;-81
2021/04/25 13:16:34;;;;;;;3.67;3.37;;;;;;;;;;5031914;28;20181;-81
2021/04/25 13:18:59;;;;;;;4.70;4.00;;;;;;;;;;5035372;28;20222;-81
2021/04/25 13:21:37;;;;;;;6.77;5.87;;;;;;;;;;5036858;28;20174;-81
2021/04/25 13:24:03;;;;;;;4.50;4.00;;;;;;;;;;5036873;28;20237;-80
2021/04/25 13:26:28;;;;;;;6.40;5.70;;;;;;;;;;5036179;28;20176;-81
2021/04/25 13:28:53;;;;;;;8.83;7.00;;;;;;;;;;5031015;28;20584;-81
2021/04/25 13:31:19;;;;;;;9.63;6.30;;;;;;;;;;5035844;28;20642;-81
2021/04/25 13:33:46;;;;;;;4.30;3.90;;;;;;;;;;5036747;28;20257;-80
2021/04/25 13:36:11;;;;;;;3.90;3.60;;;;;;;;;;5036658;28;20670;-81
2021/04/25 13:38:36;;;;;;;3.93;3.57;;;;;;;;;;5036833;28;20165;-80
2021/04/25 13:41:03;;;;;;;5.67;4.40;;;;;;;;;;5034089;28;20173;-81
2021/04/25 13:43:28;;;;;;;4.63;3.90;;;;;;;;;;5032075;28;20172;-82
2021/04/25 13:45:54;;;;;;;4.97;3.50;;;;;;;;;;5033022;28;20187;-81
2021/04/25 13:48:19;;;;;;;5.93;4.37;;;;;;;;;;5033706;28;20192;-81
2021/04/25 13:50:45;;;;;;;6.47;5.00;;;;;;;;;;5033697;28;20200;-81
2021/04/25 13:53:11;;;;;;;4.57;4.10;;;;;;;;;;5034758;28;20169;-81
2021/04/25 13:55:36;;;;;;;5.17;4.67;;;;;;;;;;5035365;28;20234;-81
2021/04/25 13:58:02;;;;;;;4.33;3.93;;;;;;;;;;5035684;28;20582;-81
2021/04/25 14:00:28;;;;;;;8.10;6.87;;;;;;;;;;5033181;28;20188;-81
2021/04/25 14:02:54;;;;;;;6.10;4.70;;;;;;;;;;5033501;28;20169;-81
2021/04/25 14:05:20;;;;;;;4.67;3.57;;;;;;;;;;5032702;28;20173;-82
2021/04/25 14:07:46;;;;;;;3.50;3.20;;;;;;;;;;5035178;28;20222;-81
2021/04/25 14:10:13;;;;;;;5.33;4.77;;;;;;;;;;5032842;28;20173;-81
2021/04/25 14:12:38;;;;;;;4.50;3.23;;;;;;;;;;5034975;28;20180;-81
2021/04/25 14:15:05;;;;;;;4.00;3.60;;;;;;;;;;5033786;28;20204;-81
2021/04/25 14:17:30;;;;;;;5.07;3.70;;;;;;;;;;5034948;28;20172;-81
2021/04/25 14:19:56;;;;;;;4.20;3.80;;;;;;;;;;5033875;28;20175;-82
2021/04/25 14:22:21;;;;;;;4.40;4.00;;;;;;;;;;5032505;28;20177;-82
2021/04/25 14:24:48;;;;;;;5.07;3.90;;;;;;;;;;5033777;28;20176;-82
2021/04/25 14:27:14;;;;;;;4.60;4.20;;;;;;;;;;5033869;28;20260;-81
2021/04/25 14:29:40;;;;;;;11.63;9.20;;;;;;;;;;5032883;28;20255;-81
2021/04/25 14:32:06;;;;;;;9.03;6.97;;;;;;;;;;5031289;28;20177;-81
2021/04/25 14:34:31;;;;;;;5.17;4.67;;;;;;;;;;5033331;28;20327;-82